aviador You're here:

KNMM Decoded Metar

MERIDIAN in MS, USA
Report Time2018-06-25 05:56:00
UTC Time2018-06-25 06:17:21
Flight Rules vfr VFR
WindCalm
Visibility9999 m
Phenomena:N/A
Clouds:Few 060 Hf
Scattered 075 Hf
Expected CloudBase > 1,200 ft AGL from Temp-Dew spread
CeilingNone
Temp27°C (ISA +13)
Dew Point24°C (84% RH)
Heat Index30.1°C
QNH1017 hPa
Density Alt2,031 ft
Elevation318 ft
Report Wrong Elevation
Raw Report
KNMM 250556Z AUTO 00000KT 10SM FEW060 SCT075 27/24 A3002 RMK AO2
SLP171 T02670239 10333 20261 403500250 51004 $=

Extra information for KNMM:More info

Metar Taf Metar & Taf Last 4 Metars F.Rules Stats Wind Profile Meteogram Temp Stats Airport Information Weather charts Add Link Nearby VenuesMetar ALERT Operation Metar Decoded Social comments

AIRNAV info for KNMM